createdAt,value
2022-12-31T00:01:27.684Z,100.00
2022-12-31T00:03:56.139Z,100.00
2022-12-31T00:06:27.693Z,100.00
2022-12-31T00:08:57.527Z,100.00
2022-12-31T00:11:26.142Z,100.00
2022-12-31T00:13:54.092Z,100.00
2022-12-31T00:16:24.452Z,100.00
2022-12-31T00:18:54.657Z,100.00
2022-12-31T00:21:22.754Z,100.00
2022-12-31T00:23:49.996Z,100.00
2022-12-31T00:26:21.077Z,100.00
2022-12-31T00:28:48.729Z,100.00
2022-12-31T00:31:30.551Z,100.00
2022-12-31T00:33:58.611Z,100.00
2022-12-31T00:36:34.891Z,100.00
2022-12-31T00:39:03.398Z,100.00
2022-12-31T00:41:30.427Z,100.00
2022-12-31T00:43:58.104Z,100.00
2022-12-31T00:46:25.560Z,100.00
2022-12-31T00:48:53.121Z,100.00
2022-12-31T00:51:22.545Z,100.00
2022-12-31T00:53:50.335Z,100.00
2022-12-31T00:56:22.979Z,100.00
2022-12-31T00:58:51.242Z,100.00
2022-12-31T01:01:24.573Z,100.00
2022-12-31T01:03:53.994Z,100.00
2022-12-31T01:06:21.936Z,100.00
2022-12-31T01:08:50.531Z,100.00
2022-12-31T01:11:24.529Z,100.00
2022-12-31T01:13:54.420Z,100.00
2022-12-31T01:16:25.042Z,100.00
2022-12-31T01:18:52.644Z,100.00
2022-12-31T01:21:20.616Z,100.00
2022-12-31T01:23:48.153Z,100.00
2022-12-31T01:26:17.344Z,100.00
2022-12-31T01:28:44.907Z,100.00
2022-12-31T01:31:15.122Z,100.00
2022-12-31T01:33:42.801Z,100.00
2022-12-31T01:36:25.861Z,100.00
2022-12-31T01:38:54.616Z,100.00
2022-12-31T01:41:24.940Z,100.00
2022-12-31T01:43:58.714Z,100.00
2022-12-31T01:46:30.808Z,100.00
2022-12-31T01:49:03.424Z,100.00
2022-12-31T01:51:33.885Z,100.00
2022-12-31T01:54:04.872Z,100.00
2022-12-31T01:56:32.871Z,100.00
2022-12-31T01:59:00.351Z,100.00
2022-12-31T02:01:32.708Z,100.00
2022-12-31T02:04:08.074Z,100.00
2022-12-31T02:06:49.028Z,100.00
2022-12-31T02:09:16.374Z,100.00
2022-12-31T02:11:43.453Z,100.00
2022-12-31T02:14:19.086Z,100.00
2022-12-31T02:16:52.529Z,100.00
2022-12-31T02:19:22.276Z,100.00
2022-12-31T02:22:01.136Z,100.00
2022-12-31T02:24:37.108Z,100.00
2022-12-31T02:27:23.955Z,100.00
2022-12-31T02:30:14.323Z,100.00
2022-12-31T02:33:10.159Z,100.00
2022-12-31T02:35:51.609Z,100.00
2022-12-31T02:38:26.486Z,100.00
2022-12-31T02:40:55.013Z,100.00
2022-12-31T02:43:21.919Z,100.00
2022-12-31T02:45:55.548Z,100.00
2022-12-31T02:48:31.250Z,100.00
2022-12-31T02:51:18.878Z,100.00
2022-12-31T02:53:51.759Z,100.00
2022-12-31T02:56:36.492Z,100.00
2022-12-31T02:59:32.387Z,100.00
2022-12-31T03:02:22.262Z,100.00
2022-12-31T03:04:54.630Z,100.00
2022-12-31T03:07:41.398Z,100.00
2022-12-31T03:10:09.128Z,100.00
2022-12-31T03:12:49.018Z,100.00
2022-12-31T03:15:35.981Z,100.00
2022-12-31T03:18:16.035Z,100.00
2022-12-31T03:21:01.351Z,100.00
2022-12-31T03:23:32.195Z,100.00
2022-12-31T03:26:00.641Z,100.00
2022-12-31T03:28:30.277Z,100.00
2022-12-31T03:31:00.221Z,100.00
2022-12-31T03:33:31.908Z,100.00
2022-12-31T03:35:58.923Z,100.00
2022-12-31T03:38:26.084Z,100.00
2022-12-31T03:40:53.252Z,100.00
2022-12-31T03:43:20.856Z,100.00
2022-12-31T03:45:52.023Z,100.00
2022-12-31T03:48:21.660Z,100.00
2022-12-31T03:50:48.508Z,100.00
2022-12-31T03:53:15.711Z,100.00
2022-12-31T03:55:42.661Z,100.00
2022-12-31T03:58:09.825Z,100.00
2022-12-31T04:00:36.802Z,100.00
2022-12-31T04:03:04.087Z,100.00
2022-12-31T04:05:31.403Z,100.00
2022-12-31T04:07:58.709Z,100.00
2022-12-31T04:10:25.657Z,100.00
2022-12-31T04:12:52.851Z,100.00
2022-12-31T04:15:21.900Z,100.00
2022-12-31T04:17:49.277Z,100.00
2022-12-31T04:20:16.693Z,100.00
2022-12-31T04:22:44.397Z,100.00
2022-12-31T04:25:12.047Z,100.00
2022-12-31T04:27:41.508Z,100.00
2022-12-31T04:30:08.970Z,100.00
2022-12-31T04:32:36.220Z,100.00
2022-12-31T04:35:03.199Z,100.00
2022-12-31T04:37:30.396Z,100.00
2022-12-31T04:40:03.539Z,100.00
2022-12-31T04:42:32.872Z,100.00
2022-12-31T04:44:59.730Z,100.00
2022-12-31T04:47:26.945Z,100.00
2022-12-31T04:49:53.821Z,100.00
2022-12-31T04:52:21.084Z,100.00
2022-12-31T04:54:47.985Z,100.00
2022-12-31T04:57:15.196Z,100.00
2022-12-31T04:59:42.092Z,100.00
2022-12-31T05:02:09.768Z,100.00
2022-12-31T05:04:36.744Z,100.00
2022-12-31T05:07:04.096Z,100.00
2022-12-31T05:09:31.208Z,100.00
2022-12-31T05:11:58.491Z,100.00
2022-12-31T05:14:25.507Z,100.00
2022-12-31T05:16:52.830Z,100.00
2022-12-31T05:19:19.741Z,100.00
2022-12-31T05:22:06.822Z,100.00
2022-12-31T05:24:33.684Z,100.00
2022-12-31T05:27:00.789Z,100.00
2022-12-31T05:29:27.804Z,100.00
2022-12-31T05:31:55.016Z,100.00
2022-12-31T05:34:21.891Z,100.00
2022-12-31T05:36:49.040Z,100.00
2022-12-31T05:39:16.028Z,100.00
2022-12-31T05:41:43.223Z,100.00
2022-12-31T05:44:11.036Z,100.00
2022-12-31T05:46:38.249Z,100.00
2022-12-31T05:49:05.122Z,100.00
2022-12-31T05:51:32.431Z,100.00
2022-12-31T05:53:59.378Z,100.00
2022-12-31T05:56:26.624Z,100.00
2022-12-31T05:58:53.580Z,100.00
2022-12-31T06:01:20.766Z,100.00
2022-12-31T06:03:48.180Z,100.00
2022-12-31T06:06:15.416Z,100.00
2022-12-31T06:08:42.353Z,100.00
2022-12-31T06:11:09.556Z,100.00
2022-12-31T06:13:36.895Z,100.00
2022-12-31T06:16:08.218Z,100.00
2022-12-31T06:18:35.335Z,100.00
2022-12-31T06:21:02.505Z,100.00
2022-12-31T06:23:29.567Z,100.00
2022-12-31T06:25:56.736Z,100.00
2022-12-31T06:28:23.652Z,100.00
2022-12-31T06:30:50.901Z,100.00
2022-12-31T06:33:17.820Z,100.00
2022-12-31T06:35:45.037Z,100.00
2022-12-31T06:38:11.877Z,100.00
2022-12-31T06:40:39.138Z,100.00
2022-12-31T06:43:06.029Z,100.00
2022-12-31T06:45:33.276Z,100.00
2022-12-31T06:48:00.190Z,100.00
2022-12-31T06:50:27.598Z,100.00
2022-12-31T06:52:54.536Z,100.00
2022-12-31T06:55:21.937Z,100.00
2022-12-31T06:57:49.208Z,100.00
2022-12-31T07:00:17.000Z,100.00
2022-12-31T07:03:01.885Z,100.00
2022-12-31T07:05:44.431Z,100.00
2022-12-31T07:08:45.078Z,100.00
2022-12-31T07:11:26.113Z,100.00
2022-12-31T07:14:26.882Z,100.00
2022-12-31T07:17:34.106Z,100.00
2022-12-31T07:20:12.142Z,100.00
2022-12-31T07:22:39.562Z,100.00
2022-12-31T07:25:07.439Z,100.00
2022-12-31T07:27:42.161Z,100.00
2022-12-31T07:30:17.146Z,100.00
2022-12-31T07:33:06.117Z,100.00
2022-12-31T07:35:36.155Z,100.00
2022-12-31T07:38:18.367Z,100.00
2022-12-31T07:40:54.005Z,100.00
2022-12-31T07:43:36.277Z,100.00
2022-12-31T07:46:33.506Z,100.00
2022-12-31T07:49:01.155Z,100.00
2022-12-31T07:51:28.404Z,100.00
2022-12-31T07:53:55.618Z,98.89
2022-12-31T07:56:22.625Z,99.46
2022-12-31T07:59:02.654Z,97.92
2022-12-31T08:01:47.178Z,99.17
2022-12-31T08:04:35.963Z,100.00
2022-12-31T08:07:23.519Z,100.00
2022-12-31T08:10:17.965Z,100.00
2022-12-31T08:12:48.556Z,100.00
2022-12-31T08:15:19.071Z,100.00
2022-12-31T08:17:46.416Z,100.00
2022-12-31T08:20:16.071Z,100.00
2022-12-31T08:22:46.003Z,100.00
2022-12-31T08:25:43.538Z,100.00
2022-12-31T08:28:41.880Z,100.00
2022-12-31T08:31:17.103Z,97.04
2022-12-31T08:34:05.964Z,93.57
2022-12-31T08:36:39.238Z,89.46
2022-12-31T08:39:32.961Z,88.04
2022-12-31T08:42:04.006Z,89.98
2022-12-31T08:44:58.658Z,87.34
2022-12-31T08:47:39.707Z,86.37
2022-12-31T08:50:12.988Z,84.75
2022-12-31T08:52:40.518Z,84.00
2022-12-31T08:55:07.992Z,80.68
2022-12-31T08:57:41.007Z,81.81
2022-12-31T09:00:13.870Z,85.85
2022-12-31T09:02:59.823Z,84.71
2022-12-31T09:05:58.880Z,85.76
2022-12-31T09:08:35.998Z,88.09
2022-12-31T09:11:43.367Z,90.08
2022-12-31T09:14:19.682Z,88.80
2022-12-31T09:17:09.073Z,86.26
2022-12-31T09:19:36.454Z,86.47
2022-12-31T09:22:03.703Z,82.29
2022-12-31T09:24:31.127Z,79.73
2022-12-31T09:27:28.083Z,79.34
2022-12-31T09:30:09.980Z,79.77
2022-12-31T09:32:49.022Z,76.48
2022-12-31T09:35:29.861Z,77.39
2022-12-31T09:38:16.770Z,77.00
2022-12-31T09:40:55.979Z,75.94
2022-12-31T09:43:31.951Z,74.33
2022-12-31T09:46:27.065Z,77.88
2022-12-31T09:49:11.823Z,79.85
2022-12-31T09:51:59.313Z,84.37
2022-12-31T09:54:40.284Z,85.76
2022-12-31T09:57:38.895Z,86.85
2022-12-31T10:00:05.992Z,86.07
2022-12-31T10:02:58.630Z,85.66
2022-12-31T10:05:47.023Z,81.73
2022-12-31T10:08:48.047Z,80.82
2022-12-31T10:11:45.763Z,80.32
2022-12-31T10:14:55.626Z,80.25
2022-12-31T10:17:53.392Z,82.62
2022-12-31T10:20:45.579Z,81.81
2022-12-31T10:23:20.871Z,84.16
2022-12-31T10:26:25.397Z,82.95
2022-12-31T10:29:06.258Z,85.13
2022-12-31T10:32:11.194Z,84.91
2022-12-31T10:34:46.898Z,84.12
2022-12-31T10:37:17.732Z,83.21
2022-12-31T10:40:10.475Z,82.99
2022-12-31T10:42:55.731Z,86.22
2022-12-31T10:45:25.554Z,85.23
2022-12-31T10:48:30.359Z,85.30
2022-12-31T10:50:59.967Z,84.39
2022-12-31T10:53:52.248Z,84.04
2022-12-31T10:56:42.401Z,85.33
2022-12-31T10:59:37.190Z,87.29
2022-12-31T11:02:57.816Z,89.20
2022-12-31T11:05:46.028Z,91.20
2022-12-31T11:08:53.912Z,93.14
2022-12-31T11:11:31.697Z,94.08
2022-12-31T11:14:16.962Z,94.83
2022-12-31T11:16:47.135Z,95.16
2022-12-31T11:19:52.501Z,94.17
2022-12-31T11:22:44.677Z,93.88
2022-12-31T11:25:24.447Z,94.29
2022-12-31T11:28:03.824Z,93.86
2022-12-31T11:31:13.053Z,94.28
2022-12-31T11:34:22.740Z,93.71
2022-12-31T11:37:04.922Z,94.78
2022-12-31T11:39:49.844Z,93.27
2022-12-31T11:42:27.132Z,93.86
2022-12-31T11:45:15.735Z,92.32
2022-12-31T11:48:20.147Z,92.88
2022-12-31T11:50:39.343Z,93.78
2022-12-31T11:53:16.895Z,94.19
2022-12-31T11:56:02.646Z,94.31
2022-12-31T11:58:30.121Z,95.50
2022-12-31T12:01:04.929Z,94.33
2022-12-31T12:03:32.855Z,95.22
2022-12-31T12:06:00.304Z,93.39
2022-12-31T12:08:31.537Z,92.65
2022-12-31T12:11:24.041Z,91.67
2022-12-31T12:13:51.291Z,90.58
2022-12-31T12:16:21.288Z,90.97
2022-12-31T12:19:07.453Z,90.77
2022-12-31T12:21:34.944Z,90.10
2022-12-31T12:24:01.780Z,89.06
2022-12-31T12:26:38.407Z,88.44
2022-12-31T12:29:11.589Z,87.96
2022-12-31T12:31:39.294Z,87.43
2022-12-31T12:34:23.463Z,88.27
2022-12-31T12:36:50.655Z,87.01
2022-12-31T12:39:37.778Z,88.68
2022-12-31T12:42:08.756Z,87.29
2022-12-31T12:44:35.975Z,85.02
2022-12-31T12:47:05.938Z,86.66
2022-12-31T12:49:46.011Z,87.04
2022-12-31T12:52:30.499Z,88.36
2022-12-31T12:55:09.193Z,90.30
2022-12-31T12:57:39.351Z,90.93
2022-12-31T13:00:21.126Z,92.11
2022-12-31T13:03:07.577Z,92.91
2022-12-31T13:06:06.990Z,93.45
2022-12-31T13:08:59.241Z,93.11
2022-12-31T13:11:49.791Z,93.25
2022-12-31T13:14:34.627Z,94.33
2022-12-31T13:17:24.506Z,95.42
2022-12-31T13:20:07.297Z,97.28
2022-12-31T13:23:03.382Z,98.66
2022-12-31T13:26:02.848Z,100.00
2022-12-31T13:28:30.978Z,100.00
2022-12-31T13:31:07.605Z,100.00
2022-12-31T13:33:49.739Z,100.00
2022-12-31T13:36:20.428Z,100.00
2022-12-31T13:38:54.554Z,100.00
2022-12-31T13:41:27.856Z,100.00
2022-12-31T13:44:15.723Z,100.00
2022-12-31T13:47:08.824Z,100.00
2022-12-31T13:49:44.159Z,100.00
2022-12-31T13:52:36.052Z,100.00
2022-12-31T13:55:17.568Z,100.00
2022-12-31T13:58:03.703Z,100.00
2022-12-31T14:00:38.083Z,100.00
2022-12-31T14:03:15.367Z,100.00
2022-12-31T14:05:53.873Z,100.00
2022-12-31T14:08:21.195Z,100.00
2022-12-31T14:11:03.273Z,100.00
2022-12-31T14:14:12.399Z,100.00
2022-12-31T14:16:48.686Z,100.00
2022-12-31T14:19:41.207Z,100.00
2022-12-31T14:22:44.439Z,100.00
2022-12-31T14:25:20.926Z,100.00
2022-12-31T14:27:51.005Z,100.00
2022-12-31T14:30:20.427Z,100.00
2022-12-31T14:33:06.032Z,100.00
2022-12-31T14:36:05.217Z,100.00
2022-12-31T14:39:17.357Z,100.00
2022-12-31T14:42:03.075Z,100.00
2022-12-31T14:45:01.454Z,100.00
2022-12-31T14:47:46.669Z,100.00
2022-12-31T14:50:21.590Z,100.00
2022-12-31T14:52:53.451Z,100.00
2022-12-31T14:55:24.181Z,100.00
2022-12-31T14:58:26.482Z,100.00
2022-12-31T15:00:40.149Z,100.00
2022-12-31T15:03:37.931Z,100.00
2022-12-31T15:06:23.388Z,100.00
2022-12-31T15:09:15.081Z,100.00
2022-12-31T15:12:00.034Z,100.00
2022-12-31T15:14:37.841Z,100.00
2022-12-31T15:17:40.394Z,100.00
2022-12-31T15:20:33.664Z,100.00
2022-12-31T15:23:00.803Z,100.00
2022-12-31T15:25:40.102Z,100.00
2022-12-31T15:28:30.519Z,100.00
2022-12-31T15:31:21.077Z,100.00
2022-12-31T15:33:58.535Z,100.00
2022-12-31T15:36:29.419Z,100.00
2022-12-31T15:39:10.110Z,100.00
2022-12-31T15:42:10.277Z,100.00
2022-12-31T15:44:51.744Z,100.00
2022-12-31T15:47:34.400Z,100.00
2022-12-31T15:50:08.092Z,100.00
2022-12-31T15:52:54.193Z,100.00
2022-12-31T15:55:26.861Z,100.00
2022-12-31T15:57:58.586Z,100.00
2022-12-31T16:00:30.142Z,100.00
2022-12-31T16:02:57.892Z,100.00
2022-12-31T16:05:27.335Z,100.00
2022-12-31T16:07:59.527Z,100.00
2022-12-31T16:10:31.798Z,100.00
2022-12-31T16:12:59.928Z,100.00
2022-12-31T16:15:30.656Z,100.00
2022-12-31T16:18:04.653Z,100.00
2022-12-31T16:20:33.799Z,100.00
2022-12-31T16:23:03.320Z,100.00
2022-12-31T16:25:32.654Z,100.00
2022-12-31T16:28:03.272Z,100.00
2022-12-31T16:30:36.012Z,100.00
2022-12-31T16:33:06.454Z,100.00
2022-12-31T16:35:39.296Z,100.00
2022-12-31T16:38:12.584Z,100.00
2022-12-31T16:40:45.093Z,100.00
2022-12-31T16:43:38.158Z,100.00
2022-12-31T16:46:27.519Z,100.00
2022-12-31T16:48:56.301Z,100.00
2022-12-31T16:51:29.949Z,100.00
2022-12-31T16:53:58.157Z,100.00
2022-12-31T16:56:45.517Z,100.00
2022-12-31T16:59:23.879Z,100.00
2022-12-31T17:01:52.436Z,100.00
2022-12-31T17:04:22.214Z,100.00
2022-12-31T17:06:49.183Z,100.00
2022-12-31T17:09:31.171Z,100.00
2022-12-31T17:12:14.614Z,100.00
2022-12-31T17:14:50.825Z,100.00
2022-12-31T17:17:30.114Z,100.00
2022-12-31T17:19:58.863Z,100.00
2022-12-31T17:22:35.750Z,100.00
2022-12-31T17:25:06.820Z,100.00
2022-12-31T17:27:35.982Z,100.00
2022-12-31T17:30:23.156Z,100.00
2022-12-31T17:32:51.821Z,100.00
2022-12-31T17:35:28.270Z,100.00
2022-12-31T17:37:55.431Z,100.00
2022-12-31T17:40:54.422Z,100.00
2022-12-31T17:43:23.689Z,100.00
2022-12-31T17:45:52.970Z,100.00
2022-12-31T17:48:20.607Z,100.00
2022-12-31T17:50:59.017Z,100.00
2022-12-31T17:53:26.127Z,100.00
2022-12-31T17:55:56.908Z,100.00
2022-12-31T17:58:37.559Z,100.00
2022-12-31T18:01:09.435Z,100.00
2022-12-31T18:03:36.432Z,100.00
2022-12-31T18:06:05.494Z,100.00
2022-12-31T18:08:32.455Z,100.00
2022-12-31T18:10:59.815Z,100.00
2022-12-31T18:13:27.738Z,100.00
2022-12-31T18:15:55.514Z,100.00
2022-12-31T18:18:32.810Z,100.00
2022-12-31T18:21:06.834Z,100.00
2022-12-31T18:23:46.347Z,100.00
2022-12-31T18:26:18.297Z,100.00
2022-12-31T18:28:45.536Z,100.00
2022-12-31T18:31:15.889Z,100.00
2022-12-31T18:33:42.985Z,100.00
2022-12-31T18:36:15.682Z,100.00
2022-12-31T18:38:42.658Z,100.00
2022-12-31T18:41:19.498Z,100.00
2022-12-31T18:43:46.531Z,100.00
2022-12-31T18:46:17.125Z,100.00
2022-12-31T18:48:44.677Z,100.00
2022-12-31T18:51:16.075Z,100.00
2022-12-31T18:53:43.130Z,100.00
2022-12-31T18:56:15.841Z,100.00
2022-12-31T18:58:43.253Z,100.00
2022-12-31T19:01:28.186Z,100.00
2022-12-31T19:04:00.290Z,100.00
2022-12-31T19:06:27.894Z,100.00
2022-12-31T19:08:55.071Z,100.00
2022-12-31T19:11:23.180Z,100.00
2022-12-31T19:13:50.123Z,100.00
2022-12-31T19:16:18.122Z,100.00
2022-12-31T19:18:47.454Z,100.00
2022-12-31T19:21:20.151Z,100.00
2022-12-31T19:23:47.375Z,100.00
2022-12-31T19:26:22.810Z,100.00
2022-12-31T19:28:50.906Z,100.00
2022-12-31T19:31:18.242Z,100.00
2022-12-31T19:33:45.354Z,100.00
2022-12-31T19:36:18.286Z,100.00
2022-12-31T19:38:45.660Z,100.00
2022-12-31T19:41:18.744Z,100.00
2022-12-31T19:43:46.809Z,100.00
2022-12-31T19:46:16.330Z,100.00
2022-12-31T19:48:43.499Z,100.00
2022-12-31T19:51:19.659Z,100.00
2022-12-31T19:53:47.969Z,100.00
2022-12-31T19:56:20.402Z,100.00
2022-12-31T19:58:47.768Z,100.00
2022-12-31T20:01:25.635Z,100.00
2022-12-31T20:03:52.525Z,100.00
2022-12-31T20:06:20.004Z,100.00
2022-12-31T20:08:46.944Z,100.00
2022-12-31T20:11:17.471Z,100.00
2022-12-31T20:13:45.792Z,100.00
2022-12-31T20:16:15.674Z,100.00
2022-12-31T20:18:43.986Z,100.00
2022-12-31T20:21:18.101Z,100.00
2022-12-31T20:23:45.741Z,100.00
2022-12-31T20:26:13.441Z,100.00
2022-12-31T20:28:40.857Z,100.00
2022-12-31T20:31:13.094Z,100.00
2022-12-31T20:33:40.263Z,100.00
2022-12-31T20:36:10.014Z,100.00
2022-12-31T20:38:37.332Z,100.00
2022-12-31T20:41:04.501Z,100.00
2022-12-31T20:43:35.576Z,100.00
2022-12-31T20:46:14.123Z,100.00
2022-12-31T20:48:42.338Z,100.00
2022-12-31T20:51:09.747Z,100.00
2022-12-31T20:53:36.653Z,100.00
2022-12-31T20:56:08.705Z,100.00
2022-12-31T20:58:36.252Z,100.00
2022-12-31T21:01:07.196Z,100.00
2022-12-31T21:04:04.912Z,100.00
2022-12-31T21:06:26.935Z,100.00
2022-12-31T21:08:54.951Z,100.00
2022-12-31T21:11:45.511Z,100.00
2022-12-31T21:14:12.620Z,100.00
2022-12-31T21:16:40.039Z,100.00
2022-12-31T21:19:06.972Z,100.00
2022-12-31T21:21:34.390Z,100.00
2022-12-31T21:24:01.452Z,100.00
2022-12-31T21:26:29.364Z,100.00
2022-12-31T21:28:56.332Z,100.00
2022-12-31T21:31:23.674Z,100.00
2022-12-31T21:33:50.806Z,100.00
2022-12-31T21:36:18.050Z,100.00
2022-12-31T21:38:45.228Z,100.00
2022-12-31T21:41:33.498Z,100.00
2022-12-31T21:44:01.253Z,100.00
2022-12-31T21:46:29.086Z,100.00
2022-12-31T21:49:00.444Z,100.00
2022-12-31T21:51:28.353Z,100.00
2022-12-31T21:53:55.470Z,100.00
2022-12-31T21:56:23.419Z,100.00
2022-12-31T21:59:14.957Z,100.00
2022-12-31T22:02:00.837Z,100.00
2022-12-31T22:05:00.878Z,100.00
2022-12-31T22:07:15.364Z,100.00
2022-12-31T22:09:42.284Z,100.00
2022-12-31T22:12:09.452Z,100.00
2022-12-31T22:14:36.418Z,100.00
2022-12-31T22:17:03.627Z,100.00
2022-12-31T22:19:30.574Z,100.00
2022-12-31T22:21:57.759Z,100.00
2022-12-31T22:24:24.770Z,100.00
2022-12-31T22:26:54.267Z,100.00
2022-12-31T22:29:21.698Z,100.00
2022-12-31T22:31:49.083Z,100.00
2022-12-31T22:34:16.006Z,100.00
2022-12-31T22:36:43.245Z,100.00
2022-12-31T22:39:43.295Z,100.00
2022-12-31T22:42:02.870Z,100.00
2022-12-31T22:44:29.893Z,100.00
2022-12-31T22:46:57.323Z,100.00
2022-12-31T22:49:24.201Z,100.00
2022-12-31T22:51:57.136Z,100.00
2022-12-31T22:54:26.643Z,100.00
2022-12-31T22:56:54.029Z,100.00
2022-12-31T22:59:20.918Z,100.00
2022-12-31T23:01:48.184Z,100.00
2022-12-31T23:04:15.170Z,100.00
2022-12-31T23:06:45.315Z,100.00
2022-12-31T23:09:33.346Z,100.00
2022-12-31T23:12:00.734Z,100.00
2022-12-31T23:14:46.100Z,100.00
2022-12-31T23:17:35.668Z,100.00
2022-12-31T23:20:21.927Z,100.00
2022-12-31T23:23:10.666Z,100.00
2022-12-31T23:25:44.384Z,100.00
2022-12-31T23:28:18.341Z,100.00
2022-12-31T23:30:45.429Z,100.00
2022-12-31T23:33:16.019Z,100.00
2022-12-31T23:35:43.265Z,100.00
2022-12-31T23:38:11.108Z,100.00
2022-12-31T23:40:38.116Z,100.00
2022-12-31T23:43:07.533Z,100.00
2022-12-31T23:45:35.301Z,100.00
2022-12-31T23:48:03.356Z,100.00
2022-12-31T23:50:30.216Z,100.00
2022-12-31T23:52:57.510Z,100.00
2022-12-31T23:55:24.525Z,100.00
2022-12-31T23:57:51.809Z,100.00
